createdAt,value
2017-09-21T00:02:08.496Z,98897.55
2017-09-21T00:04:36.813Z,98891.17
2017-09-21T00:07:05.115Z,98893.94
2017-09-21T00:09:33.542Z,98889.10
2017-09-21T00:12:01.867Z,98891.18
2017-09-21T00:14:30.196Z,98894.52
2017-09-21T00:16:58.502Z,98891.94
2017-09-21T00:19:29.004Z,98897.13
2017-09-21T00:21:57.362Z,98893.36
2017-09-21T00:24:25.685Z,98890.16
2017-09-21T00:26:54.102Z,98887.91
2017-09-21T00:29:22.490Z,98897.31
2017-09-21T00:31:50.838Z,98892.78
2017-09-21T00:34:19.148Z,98895.90
2017-09-21T00:36:47.460Z,98894.48
2017-09-21T00:39:15.809Z,98902.20
2017-09-21T00:41:44.132Z,98904.91
2017-09-21T00:44:12.464Z,98895.11
2017-09-21T00:46:40.770Z,98896.03
2017-09-21T00:49:10.158Z,98890.07
2017-09-21T00:51:38.487Z,98887.24
2017-09-21T00:54:06.834Z,98889.27
2017-09-21T00:56:35.933Z,98890.81
2017-09-21T00:59:04.243Z,98886.66
2017-09-21T01:01:32.855Z,98885.50
2017-09-21T01:04:01.312Z,98885.03
2017-09-21T01:06:29.672Z,98882.84
2017-09-21T01:08:58.048Z,98885.08
2017-09-21T01:11:26.384Z,98880.59
2017-09-21T01:13:54.729Z,98888.09
2017-09-21T01:16:24.725Z,98885.08
2017-09-21T01:18:53.050Z,98887.79
2017-09-21T01:21:21.509Z,98881.95
2017-09-21T01:23:49.887Z,98880.95
2017-09-21T01:26:19.119Z,98889.52
2017-09-21T01:28:47.448Z,98885.61
2017-09-21T01:31:15.777Z,98891.52
2017-09-21T01:33:44.115Z,98892.59
2017-09-21T01:36:12.459Z,98885.48
2017-09-21T01:38:41.563Z,98887.80
2017-09-21T01:41:10.652Z,98891.72
2017-09-21T01:43:39.757Z,98891.89
2017-09-21T01:46:08.075Z,98887.52
2017-09-21T01:48:36.407Z,98893.11
2017-09-21T01:51:05.521Z,98887.20
2017-09-21T01:53:33.861Z,98886.56
2017-09-21T01:56:02.207Z,98883.67
2017-09-21T01:58:30.510Z,98886.75
2017-09-21T02:00:58.860Z,98886.09
2017-09-21T02:03:27.200Z,98880.06
2017-09-21T02:05:55.513Z,98880.41
2017-09-21T02:08:23.887Z,98878.77
2017-09-21T02:10:52.229Z,98876.27
2017-09-21T02:13:20.555Z,98871.48
2017-09-21T02:15:48.923Z,98867.58
2017-09-21T02:18:17.230Z,98864.34
2017-09-21T02:20:46.071Z,98868.66
2017-09-21T02:23:15.189Z,98864.98
2017-09-21T02:25:43.546Z,98866.92
2017-09-21T02:28:13.787Z,98853.81
2017-09-21T02:30:42.110Z,98855.88
2017-09-21T02:33:10.440Z,98856.58
2017-09-21T02:35:38.763Z,98858.70
2017-09-21T02:38:07.363Z,98858.95
2017-09-21T02:40:35.685Z,98865.37
2017-09-21T02:43:04.008Z,98863.67
2017-09-21T02:45:32.448Z,98855.44
2017-09-21T02:48:00.912Z,98858.58
2017-09-21T02:50:30.011Z,98866.30
2017-09-21T02:52:59.119Z,98863.70
2017-09-21T02:55:27.985Z,98866.05
2017-09-21T02:57:57.084Z,98859.59
2017-09-21T03:00:26.191Z,98856.61
2017-09-21T03:02:55.287Z,98870.58
2017-09-21T03:05:24.442Z,98866.92
2017-09-21T03:07:52.870Z,98874.92
2017-09-21T03:10:21.963Z,98867.88
2017-09-21T03:12:51.556Z,98862.34
2017-09-21T03:15:19.863Z,98859.53
2017-09-21T03:17:48.939Z,98861.02
2017-09-21T03:20:17.265Z,98867.77
2017-09-21T03:22:45.571Z,98868.88
2017-09-21T03:25:13.913Z,98868.81
2017-09-21T03:27:43.008Z,98863.20
2017-09-21T03:30:11.355Z,98872.30
2017-09-21T03:32:40.439Z,98870.99
2017-09-21T03:35:08.773Z,98866.69
2017-09-21T03:37:37.113Z,98871.88
2017-09-21T03:40:06.203Z,98868.52
2017-09-21T03:42:34.611Z,98861.62
2017-09-21T03:45:02.961Z,98855.88
2017-09-21T03:47:31.665Z,98854.45
2017-09-21T03:49:59.992Z,98843.44
2017-09-21T03:52:28.338Z,98843.53
2017-09-21T03:54:56.689Z,98849.67
2017-09-21T03:57:25.768Z,98839.57
2017-09-21T03:59:54.111Z,98845.30
2017-09-21T04:02:22.423Z,98844.52
2017-09-21T04:04:50.769Z,98844.52
2017-09-21T04:07:19.071Z,98844.29
2017-09-21T04:09:47.386Z,98843.75
2017-09-21T04:12:16.607Z,98855.64
2017-09-21T04:14:44.939Z,98853.88
2017-09-21T04:17:13.278Z,98849.18
2017-09-21T04:19:41.590Z,98855.04
2017-09-21T04:22:09.940Z,98852.52
2017-09-21T04:24:38.250Z,98854.28
2017-09-21T04:27:06.592Z,98851.06
2017-09-21T04:29:34.961Z,98852.58
2017-09-21T04:32:03.350Z,98860.98
2017-09-21T04:34:31.674Z,98861.19
2017-09-21T04:36:59.976Z,98861.89
2017-09-21T04:39:28.597Z,98862.67
2017-09-21T04:41:56.933Z,98856.31
2017-09-21T04:44:26.176Z,98863.31
2017-09-21T04:46:54.520Z,98860.72
2017-09-21T04:49:23.599Z,98868.37
2017-09-21T04:51:51.938Z,98868.05
2017-09-21T04:54:20.245Z,98866.94
2017-09-21T04:56:48.581Z,98859.34
2017-09-21T04:59:16.916Z,98867.14
2017-09-21T05:01:45.256Z,98858.20
2017-09-21T05:04:13.596Z,98861.07
2017-09-21T05:06:41.930Z,98866.52
2017-09-21T05:09:10.272Z,98877.11
2017-09-21T05:11:38.640Z,98881.30
2017-09-21T05:14:06.959Z,98881.53
2017-09-21T05:16:35.302Z,98881.11
2017-09-21T05:19:03.627Z,98880.36
2017-09-21T05:21:31.951Z,98879.89
2017-09-21T05:24:01.040Z,98878.80
2017-09-21T05:26:30.155Z,98877.70
2017-09-21T05:28:58.487Z,98884.39
2017-09-21T05:31:26.827Z,98884.39
2017-09-21T05:33:55.194Z,98883.17
2017-09-21T05:36:23.527Z,98882.34
2017-09-21T05:38:51.887Z,98886.97
2017-09-21T05:41:20.211Z,98887.05
2017-09-21T05:43:48.815Z,98883.72
2017-09-21T05:46:17.139Z,98880.02
2017-09-21T05:48:45.472Z,98880.83
2017-09-21T05:51:13.818Z,98889.39
2017-09-21T05:53:42.147Z,98886.28
2017-09-21T05:56:10.487Z,98881.88
2017-09-21T05:58:38.832Z,98879.38
2017-09-21T06:01:07.163Z,98880.45
2017-09-21T06:03:35.542Z,98879.77
2017-09-21T06:06:04.686Z,98873.46
2017-09-21T06:08:33.037Z,98874.44
2017-09-21T06:11:01.363Z,98874.10
2017-09-21T06:13:31.830Z,98867.98
2017-09-21T06:16:00.152Z,98861.83
2017-09-21T06:18:28.483Z,98860.52
2017-09-21T06:20:56.795Z,98860.31
2017-09-21T06:23:25.123Z,98866.12
2017-09-21T06:25:53.447Z,98868.66
2017-09-21T06:28:21.768Z,98868.66
2017-09-21T06:30:50.137Z,98871.31
2017-09-21T06:33:18.532Z,98867.69
2017-09-21T06:35:47.208Z,98865.70
2017-09-21T06:38:15.541Z,98870.19
2017-09-21T06:40:43.867Z,98867.38
2017-09-21T06:43:12.206Z,98868.33
2017-09-21T06:45:40.530Z,98861.58
2017-09-21T06:48:08.875Z,98870.20
2017-09-21T06:50:37.206Z,98867.51
2017-09-21T06:53:06.298Z,98861.52
2017-09-21T06:55:35.401Z,98860.13
2017-09-21T06:58:03.749Z,98864.30
2017-09-21T07:00:32.138Z,98863.36
2017-09-21T07:03:04.110Z,98862.97
2017-09-21T07:05:32.449Z,98861.84
2017-09-21T07:08:00.759Z,98859.62
2017-09-21T07:10:29.096Z,98861.32
2017-09-21T07:12:57.453Z,98866.23
2017-09-21T07:15:25.774Z,98869.31
2017-09-21T07:17:54.095Z,98863.03
2017-09-21T07:20:22.422Z,98860.20
2017-09-21T07:22:50.765Z,98863.45
2017-09-21T07:25:19.106Z,98861.31
2017-09-21T07:27:47.795Z,98860.31
2017-09-21T07:30:16.133Z,98862.02
2017-09-21T07:32:44.455Z,98859.71
2017-09-21T07:35:12.797Z,98864.62
2017-09-21T07:37:41.112Z,98861.52
2017-09-21T07:40:09.453Z,98862.67
2017-09-21T07:42:37.785Z,98861.27
2017-09-21T07:45:07.205Z,98854.36
2017-09-21T07:47:35.554Z,98857.64
2017-09-21T07:50:03.897Z,98851.48
2017-09-21T07:52:32.243Z,98858.06
2017-09-21T07:55:01.344Z,98845.38
2017-09-21T07:57:29.688Z,98848.22
2017-09-21T07:59:58.038Z,98845.33
2017-09-21T08:02:26.869Z,98850.50
2017-09-21T08:04:55.204Z,98853.73
2017-09-21T08:07:23.517Z,98852.34
2017-09-21T08:09:51.875Z,98850.17
2017-09-21T08:12:20.183Z,98852.64
2017-09-21T08:14:48.524Z,98846.48
2017-09-21T08:17:16.857Z,98849.45
2017-09-21T08:19:45.205Z,98849.82
2017-09-21T08:22:13.520Z,98848.86
2017-09-21T08:24:41.855Z,98849.80
2017-09-21T08:27:10.183Z,98847.04
2017-09-21T08:29:40.406Z,98845.73
2017-09-21T08:32:08.758Z,98845.51
2017-09-21T08:34:37.088Z,98839.97
2017-09-21T08:37:05.689Z,98838.60
2017-09-21T08:39:34.046Z,98838.50
2017-09-21T08:42:02.436Z,98835.34
2017-09-21T08:44:30.766Z,98839.04
2017-09-21T08:46:59.090Z,98842.59
2017-09-21T08:49:27.443Z,98830.09
2017-09-21T08:51:56.540Z,98828.92
2017-09-21T08:54:25.151Z,98830.78
2017-09-21T08:56:53.480Z,98826.58
2017-09-21T08:59:21.818Z,98826.79
2017-09-21T09:01:50.163Z,98828.14
2017-09-21T09:04:18.500Z,98829.73
2017-09-21T09:06:46.850Z,98828.87
2017-09-21T09:09:15.181Z,98824.31
2017-09-21T09:11:44.415Z,98829.25
2017-09-21T09:14:12.747Z,98821.49
2017-09-21T09:16:41.107Z,98822.00
2017-09-21T09:19:09.452Z,98823.77
2017-09-21T09:21:37.784Z,98822.91
2017-09-21T09:24:06.128Z,98821.51
2017-09-21T09:26:34.447Z,98816.21
2017-09-21T09:29:02.767Z,98811.13
2017-09-21T09:31:31.110Z,98804.78
2017-09-21T09:34:00.203Z,98807.30
2017-09-21T09:36:28.543Z,98797.09
2017-09-21T09:38:56.873Z,98801.03
2017-09-21T09:41:26.013Z,98803.22
2017-09-21T09:43:54.361Z,98799.41
2017-09-21T09:46:23.439Z,98801.58
2017-09-21T09:48:51.781Z,98796.70
2017-09-21T09:51:20.951Z,98791.16
2017-09-21T09:53:49.284Z,98788.31
2017-09-21T09:56:17.615Z,98783.09
2017-09-21T09:58:46.015Z,98773.44
2017-09-21T10:01:14.364Z,98779.98
2017-09-21T10:03:42.701Z,98775.85
2017-09-21T10:06:11.051Z,98779.27
2017-09-21T10:08:39.371Z,98780.06
2017-09-21T10:11:07.721Z,98778.78
2017-09-21T10:13:36.060Z,98780.27
2017-09-21T10:16:04.426Z,98775.02
2017-09-21T10:18:32.789Z,98769.31
2017-09-21T10:21:01.888Z,98769.66
2017-09-21T10:23:30.244Z,98766.06
2017-09-21T10:25:58.565Z,98767.42
2017-09-21T10:28:27.698Z,98767.15
2017-09-21T10:30:56.033Z,98761.23
2017-09-21T10:33:24.393Z,98757.52
2017-09-21T10:35:52.740Z,98754.92
2017-09-21T10:38:21.058Z,98751.05
2017-09-21T10:40:49.384Z,98746.95
2017-09-21T10:43:17.700Z,98750.23
2017-09-21T10:45:46.038Z,98745.91
2017-09-21T10:48:14.344Z,98749.16
2017-09-21T10:50:42.662Z,98747.08
2017-09-21T10:53:11.772Z,98741.14
2017-09-21T10:55:40.093Z,98737.84
2017-09-21T10:58:08.442Z,98737.72
2017-09-21T11:00:36.777Z,98739.47
2017-09-21T11:03:05.108Z,98732.82
2017-09-21T11:05:33.505Z,98730.34
2017-09-21T11:08:01.816Z,98730.95
2017-09-21T11:10:30.177Z,98730.05
2017-09-21T11:12:59.252Z,98733.52
2017-09-21T11:15:28.095Z,98725.72
2017-09-21T11:17:56.420Z,98727.98
2017-09-21T11:20:24.743Z,98730.82
2017-09-21T11:22:53.097Z,98728.92
2017-09-21T11:25:21.421Z,98721.42
2017-09-21T11:27:50.789Z,98728.20
2017-09-21T11:30:19.122Z,98722.34
2017-09-21T11:32:47.594Z,98723.06
2017-09-21T11:35:15.993Z,98715.50
2017-09-21T11:37:44.317Z,98723.50
2017-09-21T11:40:12.664Z,98716.19
2017-09-21T11:42:41.006Z,98714.38
2017-09-21T11:45:09.380Z,98709.31
2017-09-21T11:47:37.725Z,98707.09
2017-09-21T11:50:06.050Z,98706.67
2017-09-21T11:52:34.395Z,98696.72
2017-09-21T11:55:02.732Z,98698.42
2017-09-21T11:57:31.993Z,98691.83
2017-09-21T12:00:01.171Z,98692.23
2017-09-21T12:02:30.071Z,98700.35
2017-09-21T12:04:58.403Z,98695.67
2017-09-21T12:07:26.737Z,98696.69
2017-09-21T12:09:55.848Z,98689.97
2017-09-21T12:12:24.178Z,98683.66
2017-09-21T12:14:52.544Z,98682.42
2017-09-21T12:17:20.874Z,98684.84
2017-09-21T12:19:49.982Z,98685.48
2017-09-21T12:22:19.102Z,98684.95
2017-09-21T12:24:47.433Z,98681.14
2017-09-21T12:27:15.802Z,98673.53
2017-09-21T12:29:44.137Z,98681.80
2017-09-21T12:32:12.739Z,98675.84
2017-09-21T12:34:41.072Z,98677.76
2017-09-21T12:37:10.186Z,98674.29
2017-09-21T12:39:38.520Z,98670.31
2017-09-21T12:42:06.837Z,98673.77
2017-09-21T12:44:35.941Z,98667.27
2017-09-21T12:47:04.267Z,98666.64
2017-09-21T12:49:32.870Z,98668.23
2017-09-21T12:52:01.211Z,98660.08
2017-09-21T12:54:29.543Z,98659.86
2017-09-21T12:56:57.892Z,98656.06
2017-09-21T12:59:26.216Z,98652.17
2017-09-21T13:01:54.640Z,98652.40
2017-09-21T13:04:22.978Z,98649.66
2017-09-21T13:06:51.326Z,98648.84
2017-09-21T13:09:19.678Z,98647.38
2017-09-21T13:11:48.048Z,98642.86
2017-09-21T13:14:16.402Z,98632.48
2017-09-21T13:16:44.769Z,98631.34
2017-09-21T13:19:13.112Z,98631.14
2017-09-21T13:21:41.445Z,98639.98
2017-09-21T13:24:09.834Z,98630.58
2017-09-21T13:26:38.186Z,98632.59
2017-09-21T13:29:06.527Z,98633.79
2017-09-21T13:31:34.876Z,98635.47
2017-09-21T13:34:03.210Z,98633.89
2017-09-21T13:36:31.554Z,98629.53
2017-09-21T13:38:59.958Z,98626.02
2017-09-21T13:41:28.319Z,98624.56
2017-09-21T13:43:56.670Z,98620.98
2017-09-21T13:46:25.002Z,98620.74
2017-09-21T13:48:53.337Z,98620.00
2017-09-21T13:51:22.489Z,98618.47
2017-09-21T13:53:50.831Z,98621.39
2017-09-21T13:56:19.147Z,98620.84
2017-09-21T13:58:48.270Z,98614.47
2017-09-21T14:01:16.629Z,98614.33
2017-09-21T14:03:44.985Z,98610.12
2017-09-21T14:06:13.917Z,98609.38
2017-09-21T14:08:42.232Z,98603.28
2017-09-21T14:11:10.575Z,98607.98
2017-09-21T14:13:38.946Z,98601.15
2017-09-21T14:16:07.527Z,98603.50
2017-09-21T14:18:36.620Z,98608.55
2017-09-21T14:21:04.941Z,98607.22
2017-09-21T14:23:33.289Z,98607.88
2017-09-21T14:26:01.617Z,98606.77
2017-09-21T14:28:32.171Z,98606.68
2017-09-21T14:31:01.432Z,98607.14
2017-09-21T14:33:29.879Z,98605.95
2017-09-21T14:35:58.293Z,98604.86
2017-09-21T14:38:30.469Z,98596.08
2017-09-21T14:40:59.254Z,98595.68
2017-09-21T14:43:28.519Z,98603.91
2017-09-21T14:45:57.940Z,98600.06
2017-09-21T14:48:28.203Z,98599.17
2017-09-21T14:50:57.368Z,98592.28
2017-09-21T14:53:26.160Z,98589.33
2017-09-21T14:55:59.081Z,98580.78
2017-09-21T14:58:27.426Z,98578.91
2017-09-21T15:00:56.706Z,98578.41
2017-09-21T15:03:34.177Z,98576.57
2017-09-21T15:06:11.942Z,98575.66
2017-09-21T15:08:51.626Z,98576.06
2017-09-21T15:11:27.926Z,98573.44
2017-09-21T15:14:06.317Z,98571.31
2017-09-21T15:16:41.617Z,98569.13
2017-09-21T15:19:10.075Z,98578.22
2017-09-21T15:21:39.355Z,98579.20
2017-09-21T15:24:07.841Z,98575.78
2017-09-21T15:26:36.207Z,98566.37
2017-09-21T15:29:06.329Z,98569.95
2017-09-21T15:31:35.656Z,98569.89
2017-09-21T15:34:04.093Z,98569.63
2017-09-21T15:36:33.657Z,98566.84
2017-09-21T15:39:01.988Z,98569.73
2017-09-21T15:41:33.552Z,98572.97
2017-09-21T15:44:01.974Z,98576.80
2017-09-21T15:46:32.097Z,98573.31
2017-09-21T15:49:00.453Z,98574.83
2017-09-21T15:51:31.029Z,98576.41
2017-09-21T15:53:59.460Z,98582.05
2017-09-21T15:56:27.810Z,98572.03
2017-09-21T15:58:56.800Z,98576.72
2017-09-21T16:01:26.365Z,98572.82
2017-09-21T16:03:57.299Z,98580.36
2017-09-21T16:06:29.867Z,98580.78
2017-09-21T16:08:58.648Z,98577.48
2017-09-21T16:11:27.026Z,98584.61
2017-09-21T16:13:55.508Z,98585.48
2017-09-21T16:16:26.142Z,98584.99
2017-09-21T16:18:54.477Z,98590.45
2017-09-21T16:21:23.327Z,98589.95
2017-09-21T16:23:52.039Z,98597.34
2017-09-21T16:26:24.193Z,98594.73
2017-09-21T16:28:56.159Z,98599.13
2017-09-21T16:31:25.762Z,98601.47
2017-09-21T16:33:54.581Z,98600.05
2017-09-21T16:36:24.966Z,98605.38
2017-09-21T16:39:01.294Z,98600.62
2017-09-21T16:41:32.718Z,98608.02
2017-09-21T16:44:07.710Z,98610.61
2017-09-21T16:46:36.343Z,98606.63
2017-09-21T16:49:15.781Z,98605.00
2017-09-21T16:51:44.178Z,98602.02
2017-09-21T16:54:14.578Z,98600.17
2017-09-21T16:56:42.985Z,98604.41
2017-09-21T16:59:24.735Z,98608.25
2017-09-21T17:02:01.260Z,98610.45
2017-09-21T17:04:36.178Z,98610.91
2017-09-21T17:07:05.513Z,98606.27
2017-09-21T17:09:37.837Z,98606.96
2017-09-21T17:12:07.097Z,98609.42
2017-09-21T17:14:49.512Z,98605.39
2017-09-21T17:17:27.485Z,98607.88
2017-09-21T17:20:06.460Z,98609.08
2017-09-21T17:22:46.967Z,98610.35
2017-09-21T17:25:25.774Z,98611.59
2017-09-21T17:27:54.690Z,98611.58
2017-09-21T17:30:35.753Z,98615.08
2017-09-21T17:33:05.806Z,98618.00
2017-09-21T17:35:34.173Z,98614.36
2017-09-21T17:38:02.495Z,98617.94
2017-09-21T17:40:30.847Z,98615.09
2017-09-21T17:42:59.963Z,98621.36
2017-09-21T17:45:28.586Z,98627.36
2017-09-21T17:47:56.916Z,98627.55
2017-09-21T17:50:25.244Z,98635.73
2017-09-21T17:52:54.816Z,98635.22
2017-09-21T17:55:24.056Z,98640.66
2017-09-21T17:57:52.487Z,98643.41
2017-09-21T18:00:20.949Z,98646.81
2017-09-21T18:02:51.089Z,98650.72
2017-09-21T18:05:19.467Z,98646.28
2017-09-21T18:07:47.835Z,98648.39
2017-09-21T18:10:17.501Z,98646.66
2017-09-21T18:12:45.839Z,98653.48
2017-09-21T18:15:16.393Z,98654.38
2017-09-21T18:17:44.754Z,98655.53
2017-09-21T18:20:13.122Z,98659.87
2017-09-21T18:22:44.104Z,98662.52
2017-09-21T18:25:13.596Z,98659.33
2017-09-21T18:27:41.994Z,98671.77
2017-09-21T18:30:11.268Z,98665.77
2017-09-21T18:32:41.760Z,98668.81
2017-09-21T18:35:12.012Z,98667.56
2017-09-21T18:37:41.323Z,98675.55
2017-09-21T18:40:11.839Z,98673.41
2017-09-21T18:42:40.234Z,98674.52
2017-09-21T18:45:10.731Z,98676.17
2017-09-21T18:47:40.491Z,98678.97
2017-09-21T18:50:08.837Z,98681.08
2017-09-21T18:52:40.887Z,98675.44
2017-09-21T18:55:10.897Z,98679.31
2017-09-21T18:57:40.315Z,98671.97
2017-09-21T19:00:09.448Z,98671.74
2017-09-21T19:02:45.649Z,98667.98
2017-09-21T19:05:14.111Z,98671.53
2017-09-21T19:07:42.444Z,98671.25
2017-09-21T19:10:10.830Z,98676.34
2017-09-21T19:12:39.211Z,98678.10
2017-09-21T19:15:14.608Z,98672.13
2017-09-21T19:17:43.985Z,98671.41
2017-09-21T19:20:13.249Z,98672.78
2017-09-21T19:22:42.581Z,98679.23
2017-09-21T19:25:11.888Z,98675.03
2017-09-21T19:27:42.385Z,98683.31
2017-09-21T19:30:10.777Z,98680.28
2017-09-21T19:32:48.944Z,98678.94
2017-09-21T19:35:23.782Z,98687.34
2017-09-21T19:37:52.190Z,98684.06
2017-09-21T19:40:22.396Z,98684.18
2017-09-21T19:42:53.571Z,98685.59
2017-09-21T19:45:23.825Z,98691.16
2017-09-21T19:47:52.186Z,98689.75
2017-09-21T19:50:22.687Z,98693.05
2017-09-21T19:52:56.936Z,98694.00
2017-09-21T19:55:25.355Z,98697.41
2017-09-21T19:57:53.696Z,98695.13
2017-09-21T20:00:22.055Z,98695.45
2017-09-21T20:03:01.446Z,98690.20
2017-09-21T20:05:45.628Z,98688.66
2017-09-21T20:08:14.838Z,98682.74
2017-09-21T20:10:45.454Z,98686.48
2017-09-21T20:13:16.525Z,98685.95
2017-09-21T20:15:44.881Z,98689.27
2017-09-21T20:18:15.146Z,98691.11
2017-09-21T20:20:44.413Z,98693.23
2017-09-21T20:23:15.601Z,98691.68
2017-09-21T20:25:43.940Z,98687.78
2017-09-21T20:28:18.867Z,98691.59
2017-09-21T20:30:48.974Z,98687.40
2017-09-21T20:33:22.611Z,98696.94
2017-09-21T20:35:51.892Z,98696.03
2017-09-21T20:38:22.142Z,98700.28
2017-09-21T20:40:51.431Z,98702.44
2017-09-21T20:43:19.801Z,98697.16
2017-09-21T20:45:49.135Z,98699.92
2017-09-21T20:48:19.625Z,98706.39
2017-09-21T20:50:55.368Z,98705.36
2017-09-21T20:53:23.758Z,98707.52
2017-09-21T20:55:56.784Z,98710.66
2017-09-21T20:58:25.140Z,98706.55
2017-09-21T21:00:58.237Z,98707.85
2017-09-21T21:03:31.096Z,98707.22
2017-09-21T21:06:00.529Z,98704.98
2017-09-21T21:08:30.941Z,98704.14
2017-09-21T21:11:02.498Z,98700.16
2017-09-21T21:13:33.540Z,98698.69
2017-09-21T21:16:09.268Z,98694.52
2017-09-21T21:18:37.670Z,98698.77
2017-09-21T21:21:13.977Z,98701.38
2017-09-21T21:23:44.253Z,98700.34
2017-09-21T21:26:14.906Z,98699.01
2017-09-21T21:28:44.402Z,98695.14
2017-09-21T21:31:14.642Z,98703.17
2017-09-21T21:33:43.957Z,98705.73
2017-09-21T21:36:15.671Z,98704.30
2017-09-21T21:38:45.929Z,98706.43
2017-09-21T21:41:14.290Z,98713.21
2017-09-21T21:43:44.925Z,98714.03
2017-09-21T21:46:14.125Z,98712.64
2017-09-21T21:48:43.415Z,98714.11
2017-09-21T21:51:14.593Z,98712.54
2017-09-21T21:53:42.930Z,98713.22
2017-09-21T21:56:12.261Z,98707.42
2017-09-21T21:58:40.627Z,98713.34
2017-09-21T22:01:09.965Z,98716.44
2017-09-21T22:03:40.468Z,98717.55
2017-09-21T22:06:17.431Z,98711.52
2017-09-21T22:08:47.671Z,98713.50
2017-09-21T22:11:20.651Z,98714.05
2017-09-21T22:13:54.564Z,98712.52
2017-09-21T22:16:23.882Z,98714.39
2017-09-21T22:18:57.247Z,98713.36
2017-09-21T22:21:25.571Z,98711.39
2017-09-21T22:23:54.815Z,98711.72
2017-09-21T22:26:27.519Z,98711.66
2017-09-21T22:29:15.597Z,98708.89
2017-09-21T22:31:45.799Z,98710.37
2017-09-21T22:34:15.083Z,98710.42
2017-09-21T22:36:48.998Z,98713.95
2017-09-21T22:39:21.381Z,98708.53
2017-09-21T22:41:55.566Z,98712.64
2017-09-21T22:44:23.969Z,98710.56
2017-09-21T22:46:56.744Z,98711.46
2017-09-21T22:49:25.082Z,98706.13
2017-09-21T22:51:54.329Z,98710.79
2017-09-21T22:54:23.638Z,98704.41
2017-09-21T22:57:10.042Z,98709.27
2017-09-21T22:59:38.545Z,98711.45
2017-09-21T23:02:07.817Z,98711.30
2017-09-21T23:04:37.507Z,98703.05
2017-09-21T23:07:05.840Z,98710.97
2017-09-21T23:09:34.166Z,98707.09
2017-09-21T23:12:03.601Z,98707.17
2017-09-21T23:14:31.918Z,98706.09
2017-09-21T23:17:01.208Z,98706.91
2017-09-21T23:19:32.919Z,98705.72
2017-09-21T23:22:04.437Z,98715.52
2017-09-21T23:24:32.750Z,98711.61
2017-09-21T23:27:02.965Z,98715.11
2017-09-21T23:29:31.376Z,98708.99
2017-09-21T23:31:59.727Z,98711.76
2017-09-21T23:34:28.133Z,98711.68
2017-09-21T23:37:00.473Z,98717.95
2017-09-21T23:39:29.285Z,98725.41
2017-09-21T23:41:58.536Z,98731.84
2017-09-21T23:44:32.785Z,98732.02
2017-09-21T23:47:01.120Z,98726.13
2017-09-21T23:49:34.722Z,98729.98
2017-09-21T23:52:03.056Z,98728.65
2017-09-21T23:54:34.225Z,98725.73
2017-09-21T23:57:02.637Z,98729.80
2017-09-21T23:59:31.885Z,98725.55
